createdAt,value
2022-12-03T00:02:03.497Z,100249.72
2022-12-03T00:05:05.942Z,100255.38
2022-12-03T00:08:08.083Z,100248.75
2022-12-03T00:11:10.185Z,100249.22
2022-12-03T00:14:12.231Z,100254.59
2022-12-03T00:17:14.313Z,100247.13
2022-12-03T00:20:21.854Z,100246.53
2022-12-03T00:23:23.928Z,100253.31
2022-12-03T00:26:27.577Z,100249.56
2022-12-03T00:29:29.892Z,100253.75
2022-12-03T00:32:31.921Z,100250.81
2022-12-03T00:35:33.996Z,100254.34
2022-12-03T00:38:36.032Z,100248.66
2022-12-03T00:41:38.080Z,100241.03
2022-12-03T00:44:40.105Z,100238.94
2022-12-03T00:47:42.170Z,100235.00
2022-12-03T00:50:44.233Z,100235.16
2022-12-03T00:53:46.258Z,100228.59
2022-12-03T00:56:48.305Z,100229.25
2022-12-03T00:59:50.329Z,100228.31
2022-12-03T01:02:52.779Z,100228.78
2022-12-03T01:05:54.818Z,100234.69
2022-12-03T01:08:56.838Z,100230.56
2022-12-03T01:11:58.878Z,100233.00
2022-12-03T01:15:01.214Z,100233.16
2022-12-03T01:18:03.265Z,100237.13
2022-12-03T01:21:05.476Z,100227.34
2022-12-03T01:24:07.579Z,100230.47
2022-12-03T01:27:09.592Z,100220.59
2022-12-03T01:30:12.829Z,100221.22
2022-12-03T01:33:14.874Z,100221.22
2022-12-03T01:36:16.928Z,100219.13
2022-12-03T01:39:19.681Z,100219.56
2022-12-03T01:42:34.530Z,100223.81
2022-12-03T01:45:36.611Z,100223.50
2022-12-03T01:48:38.747Z,100224.03
2022-12-03T01:51:40.857Z,100220.66
2022-12-03T01:54:48.428Z,100221.31
2022-12-03T01:57:52.837Z,100224.25
2022-12-03T02:00:55.027Z,100222.28
2022-12-03T02:03:57.125Z,100223.38
2022-12-03T02:07:27.787Z,100224.56
2022-12-03T02:10:34.953Z,100219.78
2022-12-03T02:13:37.055Z,100224.53
2022-12-03T02:16:39.635Z,100235.94
2022-12-03T02:19:41.748Z,100230.91
2022-12-03T02:23:12.145Z,100229.28
2022-12-03T02:26:14.161Z,100231.25
2022-12-03T02:29:16.272Z,100228.47
2022-12-03T02:32:19.828Z,100231.25
2022-12-03T02:35:27.702Z,100223.03
2022-12-03T02:38:29.669Z,100224.72
2022-12-03T02:41:50.364Z,100236.50
2022-12-03T02:44:52.624Z,100232.13
2022-12-03T02:48:15.668Z,100240.75
2022-12-03T02:51:18.242Z,100238.34
2022-12-03T02:54:20.411Z,100234.19
2022-12-03T02:57:22.442Z,100230.41
2022-12-03T03:00:24.737Z,100229.34
2022-12-03T03:03:27.879Z,100238.22
2022-12-03T03:06:30.048Z,100242.34
2022-12-03T03:09:32.930Z,100238.06
2022-12-03T03:12:39.234Z,100236.16
2022-12-03T03:15:41.791Z,100233.69
2022-12-03T03:18:43.877Z,100225.69
2022-12-03T03:21:46.008Z,100221.22
2022-12-03T03:24:48.136Z,100223.03
2022-12-03T03:27:50.236Z,100217.25
2022-12-03T03:30:52.349Z,100210.53
2022-12-03T03:33:54.420Z,100212.84
2022-12-03T03:36:56.577Z,100212.97
2022-12-03T03:39:58.667Z,100207.63
2022-12-03T03:43:00.800Z,100216.06
2022-12-03T03:46:04.616Z,100214.97
2022-12-03T03:49:07.004Z,100204.19
2022-12-03T03:52:11.580Z,100198.72
2022-12-03T03:55:13.728Z,100199.06
2022-12-03T03:58:15.809Z,100191.69
2022-12-03T04:01:18.084Z,100197.53
2022-12-03T04:04:22.577Z,100196.22
2022-12-03T04:07:24.867Z,100195.72
2022-12-03T04:10:45.813Z,100193.94
2022-12-03T04:13:48.153Z,100199.41
2022-12-03T04:16:50.399Z,100195.31
2022-12-03T04:19:52.477Z,100192.38
2022-12-03T04:22:54.549Z,100188.38
2022-12-03T04:26:15.437Z,100180.25
2022-12-03T04:29:17.558Z,100175.03
2022-12-03T04:32:38.347Z,100175.59
2022-12-03T04:35:43.008Z,100172.69
2022-12-03T04:38:45.126Z,100173.03
2022-12-03T04:41:47.282Z,100172.13
2022-12-03T04:44:49.585Z,100161.00
2022-12-03T04:47:51.645Z,100162.88
2022-12-03T04:50:53.901Z,100156.47
2022-12-03T04:53:56.003Z,100159.41
2022-12-03T04:56:58.178Z,100153.69
2022-12-03T05:00:00.246Z,100149.47
2022-12-03T05:03:02.391Z,100151.88
2022-12-03T05:06:04.590Z,100144.97
2022-12-03T05:09:06.754Z,100145.66
2022-12-03T05:12:08.831Z,100140.88
2022-12-03T05:15:11.137Z,100136.19
2022-12-03T05:18:13.211Z,100136.91
2022-12-03T05:21:15.298Z,100140.25
2022-12-03T05:24:17.394Z,100127.75
2022-12-03T05:27:23.886Z,100124.56
2022-12-03T05:30:26.559Z,100125.38
2022-12-03T05:33:28.665Z,100131.50
2022-12-03T05:36:30.737Z,100124.72
2022-12-03T05:39:32.762Z,100127.13
2022-12-03T05:42:53.426Z,100129.00
2022-12-03T05:45:55.525Z,100117.56
2022-12-03T05:48:57.618Z,100115.34
2022-12-03T05:51:59.733Z,100114.94
2022-12-03T05:55:01.946Z,100109.78
2022-12-03T05:58:04.361Z,100112.25
2022-12-03T06:01:06.501Z,100111.13
2022-12-03T06:04:08.618Z,100107.53
2022-12-03T06:07:14.003Z,100110.19
2022-12-03T06:10:20.136Z,100108.69
2022-12-03T06:13:22.155Z,100100.75
2022-12-03T06:16:24.220Z,100105.91
2022-12-03T06:19:26.332Z,100099.94
2022-12-03T06:22:28.452Z,100098.19
2022-12-03T06:25:30.496Z,100101.50
2022-12-03T06:28:32.526Z,100097.75
2022-12-03T06:31:34.676Z,100094.13
2022-12-03T06:34:36.761Z,100088.19
2022-12-03T06:37:38.813Z,100088.88
2022-12-03T06:40:40.897Z,100082.13
2022-12-03T06:43:43.123Z,100073.81
2022-12-03T06:46:45.272Z,100087.47
2022-12-03T06:49:47.337Z,100075.91
2022-12-03T06:52:49.399Z,100074.75
2022-12-03T06:55:51.436Z,100075.19
2022-12-03T06:58:53.872Z,100079.03
2022-12-03T07:01:55.986Z,100077.72
2022-12-03T07:04:58.362Z,100078.53
2022-12-03T07:08:00.849Z,100078.22
2022-12-03T07:11:02.943Z,100071.31
2022-12-03T07:14:07.008Z,100078.69
2022-12-03T07:17:09.044Z,100085.56
2022-12-03T07:20:11.543Z,100092.44
2022-12-03T07:23:13.574Z,100081.25
2022-12-03T07:26:15.588Z,100089.13
2022-12-03T07:29:17.653Z,100083.63
2022-12-03T07:32:19.696Z,100085.44
2022-12-03T07:35:21.768Z,100081.28
2022-12-03T07:38:24.222Z,100081.09
2022-12-03T07:41:26.291Z,100073.75
2022-12-03T07:44:28.504Z,100072.88
2022-12-03T07:47:30.600Z,100053.03
2022-12-03T07:50:32.633Z,100061.69
2022-12-03T07:53:36.125Z,100058.97
2022-12-03T07:56:38.225Z,100058.41
2022-12-03T07:59:40.286Z,100060.59
2022-12-03T08:02:44.565Z,100067.94
2022-12-03T08:05:46.657Z,100068.69
2022-12-03T08:08:48.706Z,100063.91
2022-12-03T08:11:50.784Z,100061.47
2022-12-03T08:14:53.215Z,100062.78
2022-12-03T08:17:58.736Z,100066.06
2022-12-03T08:21:00.798Z,100065.75
2022-12-03T08:24:15.001Z,100062.75
2022-12-03T08:27:18.847Z,100058.78
2022-12-03T08:30:21.006Z,100052.81
2022-12-03T08:33:33.575Z,100055.63
2022-12-03T08:36:36.472Z,100056.22
2022-12-03T08:39:46.863Z,100055.97
2022-12-03T08:42:49.140Z,100050.69
2022-12-03T08:45:52.800Z,100057.09
2022-12-03T08:48:54.870Z,100065.06
2022-12-03T08:52:00.626Z,100061.09
2022-12-03T08:55:28.788Z,100057.59
2022-12-03T08:58:36.522Z,100049.69
2022-12-03T09:01:43.022Z,100046.09
2022-12-03T09:04:47.613Z,100036.28
2022-12-03T09:07:50.828Z,100039.72
2022-12-03T09:10:53.116Z,100042.06
2022-12-03T09:13:55.467Z,100041.72
2022-12-03T09:16:57.695Z,100030.53
2022-12-03T09:19:59.831Z,100026.88
2022-12-03T09:23:01.929Z,100022.06
2022-12-03T09:26:04.078Z,100026.56
2022-12-03T09:29:10.558Z,100036.41
2022-12-03T09:32:18.319Z,100024.47
2022-12-03T09:35:20.959Z,100028.84
2022-12-03T09:38:23.005Z,100022.94
2022-12-03T09:41:25.258Z,100017.88
2022-12-03T09:44:33.120Z,100018.88
2022-12-03T09:47:35.146Z,100014.69
2022-12-03T09:50:37.192Z,100018.00
2022-12-03T09:53:41.370Z,100018.44
2022-12-03T09:56:43.589Z,100018.78
2022-12-03T09:59:45.665Z,100010.13
2022-12-03T10:02:47.794Z,100007.69
2022-12-03T10:05:50.070Z,100001.94
2022-12-03T10:08:54.534Z,100006.38
2022-12-03T10:11:57.818Z,100004.16
2022-12-03T10:14:59.841Z,99998.19
2022-12-03T10:18:02.317Z,99990.34
2022-12-03T10:21:32.469Z,99980.75
2022-12-03T10:24:36.717Z,99977.66
2022-12-03T10:27:39.187Z,99979.06
2022-12-03T10:30:41.270Z,99978.78
2022-12-03T10:33:45.285Z,99980.66
2022-12-03T10:36:47.341Z,99970.25
2022-12-03T10:40:00.982Z,99976.94
2022-12-03T10:43:29.289Z,99977.03
2022-12-03T10:46:34.342Z,99971.50
2022-12-03T10:49:36.469Z,99972.41
2022-12-03T10:52:38.496Z,99967.19
2022-12-03T10:55:42.253Z,99959.03
2022-12-03T10:58:44.361Z,99956.66
2022-12-03T11:01:46.637Z,99958.16
2022-12-03T11:04:49.009Z,99944.94
2022-12-03T11:07:51.055Z,99940.59
2022-12-03T11:11:05.439Z,99943.00
2022-12-03T11:14:08.308Z,99939.47
2022-12-03T11:17:10.404Z,99920.94
2022-12-03T11:20:24.197Z,99924.56
2022-12-03T11:23:51.822Z,99911.47
2022-12-03T11:26:53.725Z,99905.22
2022-12-03T11:30:00.145Z,99905.50
2022-12-03T11:33:02.281Z,99908.22
2022-12-03T11:36:04.243Z,99906.34
2022-12-03T11:39:08.097Z,99900.66
2022-12-03T11:42:40.078Z,99902.69
2022-12-03T11:45:42.103Z,99912.88
2022-12-03T11:48:48.464Z,99912.19
2022-12-03T11:51:50.578Z,99918.59
2022-12-03T11:54:56.359Z,99899.13
2022-12-03T11:58:25.203Z,99899.16
2022-12-03T12:01:53.894Z,99897.66
2022-12-03T12:04:55.834Z,99898.63
2022-12-03T12:07:58.130Z,99894.59
2022-12-03T12:11:00.397Z,99884.53
2022-12-03T12:14:06.927Z,99883.16
2022-12-03T12:17:35.472Z,99877.88
2022-12-03T12:20:38.000Z,99878.25
2022-12-03T12:23:40.041Z,99862.44
2022-12-03T12:26:51.495Z,99868.25
2022-12-03T12:29:56.462Z,99852.72
2022-12-03T12:33:14.140Z,99857.69
2022-12-03T12:36:16.180Z,99849.81
2022-12-03T12:39:18.270Z,99847.41
2022-12-03T12:42:37.158Z,99835.09
2022-12-03T12:45:43.866Z,99829.97
2022-12-03T12:48:45.920Z,99835.66
2022-12-03T12:51:49.394Z,99828.72
2022-12-03T12:54:51.447Z,99822.53
2022-12-03T12:57:53.586Z,99809.50
2022-12-03T13:00:58.484Z,99813.81
2022-12-03T13:04:00.549Z,99814.72
2022-12-03T13:07:02.596Z,99803.16
2022-12-03T13:10:28.371Z,99800.72
2022-12-03T13:13:44.223Z,99803.28
2022-12-03T13:16:47.985Z,99784.56
2022-12-03T13:19:58.196Z,99782.50
2022-12-03T13:23:35.206Z,99781.25
2022-12-03T13:26:39.685Z,99772.38
2022-12-03T13:29:41.930Z,99772.00
2022-12-03T13:32:44.095Z,99775.06
2022-12-03T13:35:46.633Z,99770.69
2022-12-03T13:38:49.001Z,99764.78
2022-12-03T13:42:09.861Z,99761.31
2022-12-03T13:45:15.037Z,99753.38
2022-12-03T13:48:31.331Z,99749.50
2022-12-03T13:51:33.477Z,99748.47
2022-12-03T13:54:37.865Z,99742.16
2022-12-03T13:57:39.902Z,99742.91
2022-12-03T14:00:42.022Z,99745.34
2022-12-03T14:03:44.172Z,99742.56
2022-12-03T14:06:46.198Z,99744.13
2022-12-03T14:09:48.214Z,99737.31
2022-12-03T14:12:50.385Z,99736.72
2022-12-03T14:15:52.429Z,99741.16
2022-12-03T14:18:54.470Z,99740.84
2022-12-03T14:21:56.530Z,99747.31
2022-12-03T14:24:58.644Z,99742.28
2022-12-03T14:28:00.838Z,99747.94
2022-12-03T14:31:02.869Z,99740.09
2022-12-03T14:34:04.954Z,99736.59
2022-12-03T14:37:07.010Z,99737.97
2022-12-03T14:40:09.445Z,99734.16
2022-12-03T14:43:11.505Z,99725.59
2022-12-03T14:46:13.609Z,99721.50
2022-12-03T14:49:15.911Z,99730.16
2022-12-03T14:52:18.533Z,99720.44
2022-12-03T14:55:20.568Z,99721.56
2022-12-03T14:58:22.614Z,99710.75
2022-12-03T15:01:24.799Z,99715.59
2022-12-03T15:04:26.896Z,99723.63
2022-12-03T15:07:29.075Z,99714.00
2022-12-03T15:10:31.205Z,99715.59
2022-12-03T15:13:33.300Z,99705.25
2022-12-03T15:16:35.647Z,99702.72
2022-12-03T15:19:37.769Z,99700.69
2022-12-03T15:22:39.847Z,99695.91
2022-12-03T15:25:41.966Z,99701.16
2022-12-03T15:28:48.087Z,99694.09
2022-12-03T15:31:50.552Z,99703.34
2022-12-03T15:34:52.667Z,99698.44
2022-12-03T15:37:54.709Z,99705.19
2022-12-03T15:40:56.818Z,99690.78
2022-12-03T15:44:01.637Z,99693.50
2022-12-03T15:47:03.721Z,99692.94
2022-12-03T15:50:06.747Z,99692.38
2022-12-03T15:53:08.799Z,99691.75
2022-12-03T15:56:12.122Z,99690.13
2022-12-03T15:59:14.193Z,99690.13
2022-12-03T16:02:16.448Z,99677.72
2022-12-03T16:05:18.608Z,99688.38
2022-12-03T16:08:20.750Z,99681.69
2022-12-03T16:11:22.873Z,99669.03
2022-12-03T16:14:24.939Z,99674.44
2022-12-03T16:17:26.964Z,99675.16
2022-12-03T16:20:28.999Z,99670.59
2022-12-03T16:23:31.075Z,99670.84
2022-12-03T16:26:33.151Z,99667.94
2022-12-03T16:29:35.265Z,99668.59
2022-12-03T16:32:37.604Z,99672.22
2022-12-03T16:35:39.702Z,99660.06
2022-12-03T16:38:42.338Z,99663.50
2022-12-03T16:41:44.391Z,99663.69
2022-12-03T16:45:04.663Z,99666.00
2022-12-03T16:48:06.767Z,99663.34
2022-12-03T16:51:09.113Z,99672.78
2022-12-03T16:54:11.752Z,99672.91
2022-12-03T16:57:13.906Z,99666.22
2022-12-03T17:00:16.651Z,99671.25
2022-12-03T17:03:19.017Z,99672.09
2022-12-03T17:06:21.122Z,99666.97
2022-12-03T17:09:23.846Z,99661.13
2022-12-03T17:12:37.471Z,99660.03
2022-12-03T17:15:48.053Z,99667.28
2022-12-03T17:18:50.150Z,99658.34
2022-12-03T17:21:53.997Z,99651.56
2022-12-03T17:24:56.062Z,99655.69
2022-12-03T17:27:58.328Z,99652.94
2022-12-03T17:31:00.414Z,99661.19
2022-12-03T17:34:02.523Z,99652.16
2022-12-03T17:37:04.650Z,99653.06
2022-12-03T17:40:08.346Z,99647.56
2022-12-03T17:43:10.413Z,99642.16
2022-12-03T17:46:12.524Z,99638.16
2022-12-03T17:49:14.668Z,99642.81
2022-12-03T17:52:16.732Z,99642.22
2022-12-03T17:55:29.698Z,99633.88
2022-12-03T17:58:35.763Z,99639.78
2022-12-03T18:01:37.888Z,99635.09
2022-12-03T18:04:40.043Z,99632.38
2022-12-03T18:07:42.201Z,99629.50
2022-12-03T18:10:44.349Z,99629.44
2022-12-03T18:13:46.414Z,99628.78
2022-12-03T18:16:48.499Z,99622.94
2022-12-03T18:19:50.601Z,99621.84
2022-12-03T18:22:52.636Z,99622.50
2022-12-03T18:25:55.038Z,99608.72
2022-12-03T18:28:57.138Z,99608.00
2022-12-03T18:31:59.258Z,99609.66
2022-12-03T18:35:01.368Z,99616.13
2022-12-03T18:38:03.414Z,99610.03
2022-12-03T18:41:05.557Z,99619.84
2022-12-03T18:44:09.633Z,99620.13
2022-12-03T18:47:13.682Z,99613.66
2022-12-03T18:50:15.820Z,99620.25
2022-12-03T18:53:18.696Z,99606.47
2022-12-03T18:56:20.726Z,99605.22
2022-12-03T18:59:22.761Z,99595.69
2022-12-03T19:05:46.842Z,99604.28
2022-12-03T19:08:53.945Z,99600.28
2022-12-03T19:11:55.959Z,99602.44
2022-12-03T19:14:58.057Z,99610.06
2022-12-03T19:18:00.114Z,99608.16
2022-12-03T19:21:10.720Z,99610.66
2022-12-03T19:24:28.046Z,99611.00
2022-12-03T19:27:30.808Z,99617.56
2022-12-03T19:30:32.868Z,99613.53
2022-12-03T19:33:35.201Z,99606.34
2022-12-03T19:36:37.244Z,99605.53
2022-12-03T19:39:39.352Z,99598.78
2022-12-03T19:42:41.564Z,99600.53
2022-12-03T19:45:43.653Z,99594.94
2022-12-03T19:48:45.901Z,99596.47
2022-12-03T19:51:48.031Z,99610.69
2022-12-03T19:54:50.061Z,99605.06
2022-12-03T19:57:52.078Z,99611.06
2022-12-03T20:00:54.142Z,99618.56
2022-12-03T20:03:57.814Z,99616.00
2022-12-03T20:06:59.883Z,99616.47
2022-12-03T20:10:02.226Z,99604.03
2022-12-03T20:13:04.352Z,99609.81
2022-12-03T20:16:08.682Z,99601.44
2022-12-03T20:19:17.742Z,99601.34
2022-12-03T20:22:19.805Z,99593.88
2022-12-03T20:25:21.858Z,99602.72
2022-12-03T20:28:24.077Z,99596.75
2022-12-03T20:31:29.143Z,99593.53
2022-12-03T20:34:31.345Z,99593.97
2022-12-03T20:37:33.576Z,99579.22
2022-12-03T20:40:39.062Z,99579.59
2022-12-03T20:43:41.488Z,99575.75
2022-12-03T20:46:43.632Z,99572.31
2022-12-03T20:49:46.721Z,99570.38
2022-12-03T20:53:16.310Z,99579.38
2022-12-03T20:56:11.212Z,99574.44
2022-12-03T20:59:14.868Z,99580.13
2022-12-03T21:02:17.089Z,99568.34
2022-12-03T21:05:19.217Z,99579.59
2022-12-03T21:08:40.043Z,99575.97
2022-12-03T21:11:43.301Z,99564.53
2022-12-03T21:14:45.537Z,99571.31
2022-12-03T21:17:47.629Z,99573.75
2022-12-03T21:20:49.792Z,99570.28
2022-12-03T21:23:52.910Z,99565.16
2022-12-03T21:26:54.996Z,99564.34
2022-12-03T21:29:57.217Z,99562.53
2022-12-03T21:32:59.588Z,99561.66
2022-12-03T21:36:01.917Z,99564.50
2022-12-03T21:39:05.334Z,99557.75
2022-12-03T21:42:34.289Z,99559.84
2022-12-03T21:45:29.491Z,99561.88
2022-12-03T21:48:31.750Z,99562.47
2022-12-03T21:51:33.942Z,99563.78
2022-12-03T21:54:36.080Z,99567.16
2022-12-03T21:57:38.232Z,99563.03
2022-12-03T22:00:40.297Z,99567.56
2022-12-03T22:03:42.747Z,99562.19
2022-12-03T22:06:44.816Z,99570.66
2022-12-03T22:09:46.934Z,99566.78
2022-12-03T22:12:49.063Z,99559.81
2022-12-03T22:15:51.309Z,99557.91
2022-12-03T22:18:54.589Z,99558.94
2022-12-03T22:21:56.714Z,99555.41
2022-12-03T22:24:58.775Z,99559.09
2022-12-03T22:28:00.863Z,99560.88
2022-12-03T22:31:07.395Z,99560.41
2022-12-03T22:34:09.523Z,99569.69
2022-12-03T22:37:11.611Z,99563.66
2022-12-03T22:40:13.980Z,99569.00
2022-12-03T22:43:16.298Z,99561.66
2022-12-03T22:46:18.474Z,99572.69
2022-12-03T22:49:20.630Z,99569.81
2022-12-03T22:52:22.794Z,99567.50
2022-12-03T22:55:24.888Z,99559.03
2022-12-03T22:58:27.622Z,99552.78
2022-12-03T23:01:35.288Z,99552.47
2022-12-03T23:04:37.360Z,99538.19
2022-12-03T23:07:39.459Z,99541.84
2022-12-03T23:10:44.587Z,99543.47
2022-12-03T23:13:47.961Z,99541.00
2022-12-03T23:16:49.988Z,99541.81
2022-12-03T23:19:52.161Z,99536.53
2022-12-03T23:22:55.000Z,99532.31
2022-12-03T23:26:05.997Z,99524.69
2022-12-03T23:29:08.576Z,99520.81
2022-12-03T23:32:10.737Z,99525.63
2022-12-03T23:35:12.844Z,99523.69
2022-12-03T23:38:14.883Z,99519.41
2022-12-03T23:41:19.809Z,99517.13
2022-12-03T23:44:21.854Z,99517.34
2022-12-03T23:47:24.165Z,99517.75
2022-12-03T23:50:26.822Z,99509.75
2022-12-03T23:53:29.562Z,99503.44
2022-12-03T23:56:31.693Z,99512.06
2022-12-03T23:59:33.738Z,99523.44
